createdAt,value
2018-12-08T00:00:51.012Z,9.95
2018-12-08T00:03:19.248Z,9.23
2018-12-08T00:05:47.439Z,10.93
2018-12-08T00:08:15.632Z,7.42
2018-12-08T00:10:43.811Z,9.58
2018-12-08T00:13:12.008Z,10.28
2018-12-08T00:15:40.197Z,7.30
2018-12-08T00:18:08.372Z,4.70
2018-12-08T00:20:36.594Z,8.43
2018-12-08T00:23:04.748Z,8.38
2018-12-08T00:25:32.936Z,7.60
2018-12-08T00:28:01.128Z,9.90
2018-12-08T00:30:40.792Z,5.33
2018-12-08T00:33:08.969Z,6.50
2018-12-08T00:35:37.153Z,6.45
2018-12-08T00:38:05.340Z,8.83
2018-12-08T00:40:33.557Z,6.92
2018-12-08T00:43:01.716Z,4.50
2018-12-08T00:45:29.900Z,8.45
2018-12-08T00:47:58.084Z,5.72
2018-12-08T00:50:26.276Z,7.05
2018-12-08T00:52:54.560Z,10.70
2018-12-08T00:55:22.756Z,7.67
2018-12-08T00:57:50.948Z,9.53
2018-12-08T01:00:19.157Z,8.60
2018-12-08T01:02:47.426Z,6.37
2018-12-08T01:05:15.705Z,2.80
2018-12-08T01:07:43.891Z,7.22
2018-12-08T01:10:12.089Z,6.67
2018-12-08T01:12:40.271Z,6.80
2018-12-08T01:15:08.652Z,7.60
2018-12-08T01:17:36.847Z,10.08
2018-12-08T01:20:05.031Z,6.22
2018-12-08T01:22:33.230Z,8.63
2018-12-08T01:25:01.497Z,9.40
2018-12-08T01:27:29.701Z,6.62
2018-12-08T01:29:57.880Z,3.62
2018-12-08T01:32:26.068Z,6.83
2018-12-08T01:34:54.243Z,5.75
2018-12-08T01:37:22.456Z,7.15
2018-12-08T01:39:50.627Z,6.15
2018-12-08T01:42:19.750Z,7.47
2018-12-08T01:44:48.021Z,4.95
2018-12-08T01:47:16.129Z,6.47
2018-12-08T01:49:44.308Z,5.08
2018-12-08T01:52:12.512Z,11.20
2018-12-08T01:54:40.684Z,8.63
2018-12-08T01:57:08.873Z,4.97
2018-12-08T01:59:37.056Z,13.43
2018-12-08T02:02:05.152Z,5.40
2018-12-08T02:04:33.324Z,5.25
2018-12-08T02:07:01.521Z,4.47
2018-12-08T02:09:29.696Z,2.00
2018-12-08T02:11:57.881Z,5.37
2018-12-08T02:14:26.056Z,6.87
2018-12-08T02:16:54.260Z,6.22
2018-12-08T02:19:22.436Z,10.05
2018-12-08T02:21:50.616Z,4.47
2018-12-08T02:24:18.811Z,3.40
2018-12-08T02:26:47.052Z,8.55
2018-12-08T02:29:15.184Z,8.28
2018-12-08T02:31:53.012Z,6.58
2018-12-08T02:34:21.182Z,5.87
2018-12-08T02:36:49.372Z,11.88
2018-12-08T02:39:17.565Z,6.08
2018-12-08T02:41:45.737Z,7.72
2018-12-08T02:44:13.927Z,7.17
2018-12-08T02:46:42.112Z,6.33
2018-12-08T02:49:10.307Z,14.25
2018-12-08T02:51:38.699Z,11.48
2018-12-08T02:54:06.893Z,5.22
2018-12-08T02:56:35.097Z,6.03
2018-12-08T02:59:03.354Z,7.15
2018-12-08T03:01:31.541Z,7.40
2018-12-08T03:03:59.730Z,4.58
2018-12-08T03:06:27.899Z,3.83
2018-12-08T03:08:56.009Z,8.90
2018-12-08T03:11:24.181Z,3.77
2018-12-08T03:13:52.372Z,7.47
2018-12-08T03:16:20.562Z,10.00
2018-12-08T03:18:48.757Z,7.28
2018-12-08T03:21:16.923Z,9.45
2018-12-08T03:23:45.087Z,5.17
2018-12-08T03:26:13.300Z,3.80
2018-12-08T03:28:41.401Z,6.78
2018-12-08T03:31:09.581Z,6.37
2018-12-08T03:33:37.768Z,4.53
2018-12-08T03:36:05.948Z,5.08
2018-12-08T03:38:34.131Z,8.23
2018-12-08T03:41:02.331Z,8.83
2018-12-08T03:43:30.509Z,4.90
2018-12-08T03:45:58.708Z,5.45
2018-12-08T03:48:26.887Z,6.80
2018-12-08T03:50:55.097Z,1.25
2018-12-08T03:53:23.256Z,4.33
2018-12-08T03:55:51.452Z,4.80
2018-12-08T03:58:19.628Z,5.58
2018-12-08T04:00:47.734Z,3.02
2018-12-08T04:03:15.955Z,3.47
2018-12-08T04:05:44.096Z,2.20
2018-12-08T04:08:12.284Z,3.35
2018-12-08T04:10:40.485Z,2.60
2018-12-08T04:13:08.748Z,3.67
2018-12-08T04:15:36.829Z,4.50
2018-12-08T04:18:04.952Z,4.50
2018-12-08T04:20:33.109Z,3.02
2018-12-08T04:23:01.200Z,5.72
2018-12-08T04:25:29.368Z,5.65
2018-12-08T04:27:57.450Z,3.02
2018-12-08T04:30:25.550Z,5.58
2018-12-08T04:32:53.719Z,5.35
2018-12-08T04:35:21.921Z,7.10
2018-12-08T04:37:50.128Z,3.30
2018-12-08T04:40:18.303Z,5.35
2018-12-08T04:42:46.471Z,3.55
2018-12-08T04:45:14.552Z,3.02
2018-12-08T04:47:42.653Z,1.90
2018-12-08T04:50:10.828Z,1.52
2018-12-08T04:52:38.924Z,3.85
2018-12-08T04:55:07.103Z,3.80
2018-12-08T04:57:35.184Z,2.33
2018-12-08T05:00:03.310Z,3.42
2018-12-08T05:02:31.461Z,8.30
2018-12-08T05:04:59.544Z,3.05
2018-12-08T05:07:27.633Z,8.00
2018-12-08T05:09:55.807Z,4.33
2018-12-08T05:12:24.928Z,5.10
2018-12-08T05:14:53.108Z,5.87
2018-12-08T05:17:21.305Z,7.47
2018-12-08T05:19:49.487Z,10.65
2018-12-08T05:22:17.600Z,5.78
2018-12-08T05:24:45.756Z,7.30
2018-12-08T05:27:13.891Z,4.05
2018-12-08T05:29:42.132Z,3.42
2018-12-08T05:32:10.215Z,4.00
2018-12-08T05:34:38.296Z,3.35
2018-12-08T05:37:06.385Z,5.65
2018-12-08T05:39:34.459Z,3.15
2018-12-08T05:42:02.553Z,4.83
2018-12-08T05:44:30.735Z,6.58
2018-12-08T05:46:58.928Z,6.53
2018-12-08T05:49:27.048Z,8.13
2018-12-08T05:51:55.213Z,7.30
2018-12-08T05:54:23.383Z,1.92
2018-12-08T05:56:51.488Z,9.18
2018-12-08T05:59:19.651Z,8.58
2018-12-08T06:01:47.748Z,7.15
2018-12-08T06:04:16.021Z,6.45
2018-12-08T06:06:44.226Z,6.05
2018-12-08T06:09:12.320Z,9.28
2018-12-08T06:11:40.492Z,7.70
2018-12-08T06:14:08.576Z,5.75
2018-12-08T06:16:36.776Z,10.13
2018-12-08T06:19:04.953Z,5.00
2018-12-08T06:21:36.383Z,4.12
2018-12-08T06:24:04.684Z,16.12
2018-12-08T06:26:37.729Z,6.37
2018-12-08T06:29:05.893Z,5.92
2018-12-08T06:31:34.068Z,4.35
2018-12-08T06:34:02.165Z,7.92
2018-12-08T06:36:30.345Z,3.60
2018-12-08T06:38:58.440Z,8.18
2018-12-08T06:41:26.510Z,9.33
2018-12-08T06:43:54.597Z,9.40
2018-12-08T06:46:22.780Z,7.35
2018-12-08T06:48:50.879Z,17.17
2018-12-08T06:51:19.055Z,7.78
2018-12-08T06:53:47.150Z,7.12
2018-12-08T06:56:15.330Z,6.67
2018-12-08T06:58:43.416Z,10.78
2018-12-08T07:01:11.495Z,12.65
2018-12-08T07:03:39.607Z,11.12
2018-12-08T07:06:07.764Z,7.25
2018-12-08T07:08:35.856Z,9.38
2018-12-08T07:11:03.942Z,6.12
2018-12-08T07:13:32.138Z,8.25
2018-12-08T07:16:00.308Z,8.75
2018-12-08T07:18:28.405Z,8.90
2018-12-08T07:20:56.596Z,7.87
2018-12-08T07:23:25.128Z,8.48
2018-12-08T07:25:53.272Z,8.28
2018-12-08T07:28:21.464Z,13.08
2018-12-08T07:30:49.671Z,5.42
2018-12-08T07:33:17.860Z,16.90
2018-12-08T07:35:47.357Z,5.60
2018-12-08T07:38:15.485Z,8.43
2018-12-08T07:40:45.207Z,7.62
2018-12-08T07:43:13.454Z,13.10
2018-12-08T07:45:41.656Z,13.20
2018-12-08T07:48:11.179Z,4.45
2018-12-08T07:50:39.260Z,9.60
2018-12-08T07:53:11.597Z,10.50
2018-12-08T07:55:39.724Z,10.18
2018-12-08T07:58:07.904Z,8.73
2018-12-08T08:00:36.100Z,7.40
2018-12-08T08:03:04.179Z,8.50
2018-12-08T08:05:32.363Z,9.55
2018-12-08T08:08:00.557Z,4.72
2018-12-08T08:10:28.731Z,5.87
2018-12-08T08:12:56.913Z,4.90
2018-12-08T08:15:25.097Z,9.03
2018-12-08T08:17:53.181Z,6.42
2018-12-08T08:20:21.364Z,5.33
2018-12-08T08:22:49.427Z,3.55
2018-12-08T08:25:17.553Z,6.40
2018-12-08T08:27:45.716Z,5.10
2018-12-08T08:30:13.808Z,4.17
2018-12-08T08:32:41.955Z,3.60
2018-12-08T08:35:10.136Z,9.00
2018-12-08T08:37:38.278Z,7.35
2018-12-08T08:40:08.892Z,5.03
2018-12-08T08:42:37.009Z,2.58
2018-12-08T08:45:05.463Z,5.40
2018-12-08T08:47:33.536Z,4.15
2018-12-08T08:50:01.672Z,4.50
2018-12-08T08:52:29.876Z,2.87
2018-12-08T08:54:58.128Z,5.65
2018-12-08T08:57:26.219Z,4.00
2018-12-08T08:59:54.299Z,5.22
2018-12-08T09:02:22.426Z,6.33
2018-12-08T09:04:50.667Z,3.05
2018-12-08T09:07:18.763Z,5.95
2018-12-08T09:09:47.060Z,2.52
2018-12-08T09:12:15.115Z,3.58
2018-12-08T09:14:43.227Z,2.02
2018-12-08T09:17:11.423Z,1.47
2018-12-08T09:19:39.596Z,1.90
2018-12-08T09:22:07.688Z,1.25
2018-12-08T09:24:35.872Z,1.45
2018-12-08T09:27:04.048Z,2.17
2018-12-08T09:29:32.177Z,2.02
2018-12-08T09:32:00.324Z,3.98
2018-12-08T09:34:28.524Z,2.60
2018-12-08T09:36:56.647Z,1.90
2018-12-08T09:39:24.796Z,3.72
2018-12-08T09:41:52.976Z,2.30
2018-12-08T09:44:21.168Z,4.83
2018-12-08T09:46:49.351Z,3.87
2018-12-08T09:49:17.548Z,1.45
2018-12-08T09:51:45.663Z,2.50
2018-12-08T09:54:13.816Z,3.95
2018-12-08T09:56:42.000Z,4.05
2018-12-08T09:59:10.201Z,3.22
2018-12-08T10:01:38.372Z,5.17
2018-12-08T10:04:06.457Z,0.72
2018-12-08T10:06:34.636Z,1.65
2018-12-08T10:09:02.915Z,3.25
2018-12-08T10:11:31.012Z,5.08
2018-12-08T10:13:59.116Z,2.55
2018-12-08T10:16:27.289Z,3.30
2018-12-08T10:18:55.800Z,1.72
2018-12-08T10:21:23.968Z,2.25
2018-12-08T10:23:52.158Z,3.47
2018-12-08T10:26:20.234Z,4.47
2018-12-08T10:28:48.324Z,4.20
2018-12-08T10:31:16.556Z,5.55
2018-12-08T10:33:44.696Z,3.20
2018-12-08T10:36:12.888Z,4.33
2018-12-08T10:38:41.075Z,7.80
2018-12-08T10:41:09.270Z,5.70
2018-12-08T10:43:37.463Z,8.68
2018-12-08T10:46:05.623Z,6.83
2018-12-08T10:48:33.725Z,7.55
2018-12-08T10:51:01.901Z,3.10
2018-12-08T10:53:29.972Z,5.97
2018-12-08T10:55:58.095Z,3.27
2018-12-08T10:58:26.260Z,4.37
2018-12-08T11:00:59.938Z,7.55
2018-12-08T11:03:29.214Z,3.42
2018-12-08T11:05:57.488Z,5.47
2018-12-08T11:08:26.993Z,9.50
2018-12-08T11:10:55.180Z,4.37
2018-12-08T11:13:23.372Z,3.00
2018-12-08T11:15:51.560Z,1.82
2018-12-08T11:18:19.745Z,2.72
2018-12-08T11:20:47.907Z,2.55
2018-12-08T11:23:16.016Z,2.62
2018-12-08T11:25:44.210Z,2.00
2018-12-08T11:28:12.385Z,3.27
2018-12-08T11:30:40.489Z,1.45
2018-12-08T11:33:08.671Z,3.22
2018-12-08T11:35:36.859Z,4.78
2018-12-08T11:38:05.062Z,2.60
2018-12-08T11:40:33.332Z,1.67
2018-12-08T11:43:01.420Z,2.25
2018-12-08T11:45:29.591Z,0.47
2018-12-08T11:47:57.780Z,1.15
2018-12-08T11:50:25.984Z,1.55
2018-12-08T11:52:54.067Z,3.90
2018-12-08T11:55:29.909Z,0.45
2018-12-08T11:57:52.475Z,2.67
2018-12-08T12:00:20.558Z,1.22
2018-12-08T12:02:48.745Z,1.95
2018-12-08T12:05:16.908Z,5.05
2018-12-08T12:07:45.013Z,2.90
2018-12-08T12:10:13.119Z,2.83
2018-12-08T12:12:41.296Z,2.40
2018-12-08T12:15:09.580Z,0.95
2018-12-08T12:17:37.666Z,1.82
2018-12-08T12:20:06.245Z,3.80
2018-12-08T12:22:34.548Z,2.92
2018-12-08T12:25:02.864Z,3.75
2018-12-08T12:27:30.962Z,3.58
2018-12-08T12:29:59.105Z,3.62
2018-12-08T12:32:28.208Z,4.10
2018-12-08T12:34:56.295Z,2.83
2018-12-08T12:37:24.371Z,2.98
2018-12-08T12:39:52.455Z,2.70
2018-12-08T12:42:20.554Z,2.75
2018-12-08T12:44:48.724Z,4.08
2018-12-08T12:47:16.811Z,4.72
2018-12-08T12:49:44.899Z,2.58
2018-12-08T12:52:13.003Z,2.22
2018-12-08T12:54:41.163Z,3.85
2018-12-08T12:57:09.265Z,3.98
2018-12-08T12:59:37.440Z,3.67
2018-12-08T13:02:05.536Z,5.70
2018-12-08T13:04:33.595Z,3.47
2018-12-08T13:07:01.700Z,1.02
2018-12-08T13:09:29.885Z,1.57
2018-12-08T13:11:58.356Z,3.75
2018-12-08T13:14:26.492Z,2.00
2018-12-08T13:16:54.669Z,3.10
2018-12-08T13:19:22.839Z,1.22
2018-12-08T13:21:50.937Z,1.45
2018-12-08T13:24:19.112Z,1.02
2018-12-08T13:26:47.345Z,3.33
2018-12-08T13:29:15.501Z,1.45
2018-12-08T13:31:43.683Z,2.90
2018-12-08T13:34:28.479Z,1.12
2018-12-08T13:36:56.652Z,2.15
2018-12-08T13:39:24.833Z,2.95
2018-12-08T13:41:53.085Z,1.35
2018-12-08T13:44:34.745Z,1.55
2018-12-08T13:47:03.259Z,2.80
2018-12-08T13:49:31.681Z,1.65
2018-12-08T13:51:59.792Z,0.70
2018-12-08T13:54:39.372Z,5.37
2018-12-08T13:57:07.540Z,1.55
2018-12-08T13:59:35.724Z,1.00
2018-12-08T14:02:03.913Z,2.33
2018-12-08T14:04:32.099Z,1.95
2018-12-08T14:07:00.300Z,3.02
2018-12-08T14:09:28.942Z,1.22
2018-12-08T14:11:57.271Z,2.62
2018-12-08T14:14:25.456Z,3.75
2018-12-08T14:16:53.656Z,0.57
2018-12-08T14:19:21.854Z,1.25
2018-12-08T14:21:50.025Z,2.27
2018-12-08T14:24:18.215Z,2.20
2018-12-08T14:26:46.432Z,3.42
2018-12-08T14:29:14.685Z,1.57
2018-12-08T14:31:43.195Z,1.27
2018-12-08T14:34:11.636Z,1.47
2018-12-08T14:36:42.885Z,4.12
2018-12-08T14:39:11.437Z,0.42
2018-12-08T14:41:39.625Z,2.12
2018-12-08T14:44:07.796Z,0.90
2018-12-08T14:46:35.996Z,1.67
2018-12-08T14:49:04.160Z,0.75
2018-12-08T14:51:32.310Z,1.85
2018-12-08T14:54:01.231Z,3.45
2018-12-08T14:56:29.443Z,4.00
2018-12-08T14:58:57.568Z,1.98
2018-12-08T15:01:25.736Z,1.98
2018-12-08T15:03:53.943Z,1.15
2018-12-08T15:06:22.025Z,0.90
2018-12-08T15:08:50.176Z,2.85
2018-12-08T15:11:18.380Z,2.12
2018-12-08T15:13:46.549Z,1.57
2018-12-08T15:16:14.752Z,1.90
2018-12-08T15:18:42.933Z,2.10
2018-12-08T15:21:11.226Z,0.88
2018-12-08T15:23:39.423Z,3.87
2018-12-08T15:26:07.588Z,4.75
2018-12-08T15:28:35.783Z,1.62
2018-12-08T15:31:03.955Z,2.98
2018-12-08T15:33:32.055Z,2.52
2018-12-08T15:36:00.228Z,2.52
2018-12-08T15:38:28.320Z,3.12
2018-12-08T15:40:56.403Z,6.05
2018-12-08T15:43:24.603Z,2.95
2018-12-08T15:45:52.768Z,3.40
2018-12-08T15:48:20.859Z,6.95
2018-12-08T15:50:48.943Z,6.45
2018-12-08T15:53:17.033Z,5.72
2018-12-08T15:55:46.031Z,6.03
2018-12-08T15:58:14.132Z,5.17
2018-12-08T16:00:42.304Z,7.85
2018-12-08T16:03:10.396Z,6.03
2018-12-08T16:05:38.470Z,5.70
2018-12-08T16:08:06.792Z,3.55
2018-12-08T16:10:35.184Z,7.00
2018-12-08T16:13:03.348Z,4.78
2018-12-08T16:15:31.536Z,7.42
2018-12-08T16:17:59.736Z,6.33
2018-12-08T16:20:27.898Z,4.85
2018-12-08T16:22:56.004Z,7.10
2018-12-08T16:25:24.177Z,5.97
2018-12-08T16:27:52.288Z,4.25
2018-12-08T16:30:20.468Z,4.92
2018-12-08T16:32:48.631Z,7.90
2018-12-08T16:35:16.812Z,8.08
2018-12-08T16:37:44.893Z,8.95
2018-12-08T16:40:13.008Z,6.20
2018-12-08T16:42:41.187Z,3.08
2018-12-08T16:45:09.500Z,6.75
2018-12-08T16:47:37.756Z,5.05
2018-12-08T16:50:07.862Z,5.22
2018-12-08T16:52:35.976Z,8.00
2018-12-08T16:55:04.858Z,6.30
2018-12-08T16:57:32.977Z,8.25
2018-12-08T17:00:01.172Z,10.08
2018-12-08T17:02:30.365Z,9.13
2018-12-08T17:04:58.459Z,6.60
2018-12-08T17:07:26.630Z,8.53
2018-12-08T17:09:54.723Z,14.30
2018-12-08T17:12:23.828Z,5.78
2018-12-08T17:14:52.031Z,7.20
2018-12-08T17:17:20.215Z,6.12
2018-12-08T17:19:48.609Z,5.17
2018-12-08T17:22:16.777Z,6.72
2018-12-08T17:24:44.880Z,5.08
2018-12-08T17:27:13.066Z,4.20
2018-12-08T17:29:41.261Z,5.62
2018-12-08T17:32:09.436Z,8.83
2018-12-08T17:34:37.604Z,9.35
2018-12-08T17:37:05.712Z,4.67
2018-12-08T17:39:33.892Z,3.85
2018-12-08T17:42:02.073Z,7.28
2018-12-08T17:44:30.257Z,7.80
2018-12-08T17:46:58.456Z,5.22
2018-12-08T17:49:26.631Z,9.33
2018-12-08T17:51:54.824Z,7.20
2018-12-08T17:54:23.000Z,5.92
2018-12-08T17:56:51.096Z,6.33
2018-12-08T17:59:19.273Z,7.85
2018-12-08T18:01:47.432Z,8.68
2018-12-08T18:04:15.564Z,12.53
2018-12-08T18:06:43.728Z,7.80
2018-12-08T18:09:11.827Z,10.78
2018-12-08T18:11:40.418Z,14.20
2018-12-08T18:14:08.607Z,11.03
2018-12-08T18:16:36.800Z,9.13
2018-12-08T18:19:04.972Z,13.48
2018-12-08T18:21:33.112Z,9.20
2018-12-08T18:24:01.248Z,9.15
2018-12-08T18:26:29.449Z,6.83
2018-12-08T18:28:57.628Z,15.08
2018-12-08T18:31:25.807Z,8.35
2018-12-08T18:33:54.009Z,12.40
2018-12-08T18:36:22.177Z,9.95
2018-12-08T18:38:50.267Z,8.75
2018-12-08T18:41:18.460Z,14.98
2018-12-08T18:43:46.644Z,5.28
2018-12-08T18:46:14.845Z,7.80
2018-12-08T18:48:43.027Z,10.68
2018-12-08T18:51:11.217Z,8.35
2018-12-08T18:53:39.404Z,10.45
2018-12-08T18:56:07.580Z,4.80
2018-12-08T18:58:35.769Z,5.92
2018-12-08T19:01:04.023Z,7.45
2018-12-08T19:03:32.244Z,6.87
2018-12-08T19:06:00.431Z,5.85
2018-12-08T19:08:28.511Z,8.60
2018-12-08T19:10:56.711Z,7.30
2018-12-08T19:13:24.996Z,3.92
2018-12-08T19:15:53.155Z,6.42
2018-12-08T19:18:21.267Z,6.80
2018-12-08T19:20:49.344Z,4.15
2018-12-08T19:23:17.536Z,3.20
2018-12-08T19:25:45.713Z,4.00
2018-12-08T19:28:13.797Z,5.75
2018-12-08T19:30:41.880Z,7.62
2018-12-08T19:33:14.462Z,2.45
2018-12-08T19:35:40.096Z,1.25
2018-12-08T19:38:08.204Z,4.53
2018-12-08T19:40:36.369Z,2.30
2018-12-08T19:43:04.450Z,2.87
2018-12-08T19:45:32.640Z,5.78
2018-12-08T19:48:00.720Z,4.80
2018-12-08T19:50:28.820Z,3.65
2018-12-08T19:52:56.995Z,2.95
2018-12-08T19:55:25.084Z,3.10
2018-12-08T19:57:53.256Z,6.92
2018-12-08T20:00:21.365Z,3.50
2018-12-08T20:02:49.532Z,4.05
2018-12-08T20:05:17.724Z,4.08
2018-12-08T20:07:45.800Z,3.83
2018-12-08T20:10:13.900Z,1.45
2018-12-08T20:12:42.072Z,4.37
2018-12-08T20:15:11.683Z,3.55
2018-12-08T20:17:39.779Z,4.22
2018-12-08T20:20:07.984Z,3.17
2018-12-08T20:22:36.148Z,2.20
2018-12-08T20:25:04.252Z,2.92
2018-12-08T20:27:32.428Z,4.17
2018-12-08T20:30:00.620Z,2.92
2018-12-08T20:32:28.795Z,1.98
2018-12-08T20:34:56.897Z,2.92
2018-12-08T20:37:25.077Z,0.70
2018-12-08T20:39:53.165Z,3.70
2018-12-08T20:42:21.343Z,1.92
2018-12-08T20:44:49.465Z,3.67
2018-12-08T20:47:17.619Z,3.83
2018-12-08T20:49:45.696Z,5.37
2018-12-08T20:52:13.988Z,7.03
2018-12-08T20:54:42.175Z,5.25
2018-12-08T20:57:10.272Z,4.25
2018-12-08T20:59:38.444Z,1.57
2018-12-08T21:02:06.529Z,5.30
2018-12-08T21:04:34.607Z,4.53
2018-12-08T21:07:02.684Z,6.28
2018-12-08T21:09:30.788Z,2.77
2018-12-08T21:11:58.990Z,3.95
2018-12-08T21:14:27.169Z,2.02
2018-12-08T21:16:55.527Z,1.57
2018-12-08T21:19:23.643Z,1.77
2018-12-08T21:21:51.836Z,2.08
2018-12-08T21:24:20.068Z,3.10
2018-12-08T21:26:48.376Z,4.10
2018-12-08T21:29:16.497Z,4.12
2018-12-08T21:31:44.688Z,1.55
2018-12-08T21:34:12.866Z,1.55
2018-12-08T21:36:41.073Z,0.72
2018-12-08T21:39:09.336Z,1.98
2018-12-08T21:41:37.472Z,2.02
2018-12-08T21:44:05.613Z,2.67
2018-12-08T21:46:33.804Z,2.60
2018-12-08T21:49:01.999Z,1.60
2018-12-08T21:51:30.184Z,3.95
2018-12-08T21:53:58.376Z,1.62
2018-12-08T21:56:26.557Z,3.05
2018-12-08T21:58:54.743Z,2.72
2018-12-08T22:01:22.925Z,2.37
2018-12-08T22:03:51.124Z,1.35
2018-12-08T22:06:19.316Z,1.50
2018-12-08T22:08:47.403Z,3.65
2018-12-08T22:11:15.563Z,1.60
2018-12-08T22:13:43.758Z,2.40
2018-12-08T22:16:11.936Z,1.37
2018-12-08T22:18:40.020Z,2.47
2018-12-08T22:21:08.101Z,1.07
2018-12-08T22:23:36.188Z,4.50
2018-12-08T22:26:04.279Z,1.27
2018-12-08T22:28:32.476Z,1.82
2018-12-08T22:31:00.655Z,1.27
2018-12-08T22:33:28.864Z,1.50
2018-12-08T22:35:57.017Z,0.60
2018-12-08T22:38:25.113Z,0.68
2018-12-08T22:40:53.187Z,1.95
2018-12-08T22:43:21.277Z,1.87
2018-12-08T22:45:49.369Z,2.15
2018-12-08T22:48:17.560Z,0.70
2018-12-08T22:50:45.728Z,1.02
2018-12-08T22:53:13.815Z,1.30
2018-12-08T22:55:42.016Z,0.45
2018-12-08T22:58:10.191Z,3.52
2018-12-08T23:00:45.688Z,2.67
2018-12-08T23:03:14.879Z,2.95
2018-12-08T23:05:43.362Z,2.37
2018-12-08T23:08:11.533Z,2.27
2018-12-08T23:10:39.641Z,1.60
2018-12-08T23:13:07.816Z,1.82
2018-12-08T23:15:35.900Z,1.07
2018-12-08T23:18:04.075Z,5.17
2018-12-08T23:20:32.173Z,1.47
2018-12-08T23:23:00.248Z,2.47
2018-12-08T23:25:28.339Z,4.25
2018-12-08T23:27:56.520Z,0.30
2018-12-08T23:30:24.612Z,0.72
2018-12-08T23:32:52.799Z,1.37
2018-12-08T23:35:21.006Z,0.20
2018-12-08T23:37:49.164Z,0.45
2018-12-08T23:40:17.264Z,0.20
2018-12-08T23:42:45.436Z,0.20
2018-12-08T23:45:13.527Z,1.90
2018-12-08T23:47:41.620Z,1.95
2018-12-08T23:50:09.924Z,2.12
2018-12-08T23:52:38.080Z,2.90
2018-12-08T23:55:06.678Z,0.68
2018-12-08T23:57:34.884Z,0.95
